createdAt,value
2022-11-13T00:01:15.458Z,22.45
2022-11-13T00:03:44.946Z,23.25
2022-11-13T00:06:14.661Z,22.33
2022-11-13T00:08:45.114Z,21.95
2022-11-13T00:11:18.440Z,21.70
2022-11-13T00:13:47.984Z,22.15
2022-11-13T00:16:19.455Z,19.88
2022-11-13T00:18:49.036Z,19.33
2022-11-13T00:21:20.068Z,19.52
2022-11-13T00:23:50.677Z,19.15
2022-11-13T00:26:21.914Z,20.50
2022-11-13T00:28:55.486Z,19.67
2022-11-13T00:31:24.333Z,19.92
2022-11-13T00:36:41.440Z,21.15
2022-11-13T00:39:11.605Z,21.33
2022-11-13T00:41:40.069Z,20.80
2022-11-13T00:44:09.139Z,20.25
2022-11-13T00:46:38.217Z,20.15
2022-11-13T00:49:06.814Z,20.95
2022-11-13T00:51:35.281Z,20.27
2022-11-13T00:54:03.659Z,19.48
2022-11-13T00:56:33.633Z,21.80
2022-11-13T00:59:02.047Z,20.92
2022-11-13T01:01:30.668Z,22.65
2022-11-13T01:03:59.200Z,23.13
2022-11-13T01:06:29.436Z,22.20
2022-11-13T01:08:59.949Z,22.98
2022-11-13T01:11:32.405Z,22.75
2022-11-13T01:14:00.775Z,22.75
2022-11-13T01:16:30.523Z,22.40
2022-11-13T01:18:59.313Z,21.75
2022-11-13T01:21:31.582Z,22.90
2022-11-13T01:24:00.363Z,22.48
2022-11-13T01:26:32.911Z,22.38
2022-11-13T01:29:04.399Z,22.73
2022-11-13T01:31:33.269Z,21.67
2022-11-13T01:34:01.664Z,23.40
2022-11-13T01:36:31.379Z,23.42
2022-11-13T01:39:01.824Z,23.23
2022-11-13T01:41:35.340Z,23.83
2022-11-13T01:44:04.087Z,25.88
2022-11-13T01:46:34.235Z,24.08
2022-11-13T01:49:22.286Z,25.92
2022-11-13T01:51:55.922Z,25.60
2022-11-13T01:54:30.557Z,26.75
2022-11-13T01:57:01.138Z,26.08
2022-11-13T01:59:33.410Z,26.80
2022-11-13T02:02:02.949Z,26.60
2022-11-13T02:04:33.031Z,26.67
2022-11-13T02:07:05.615Z,27.58
2022-11-13T02:09:39.154Z,27.15
2022-11-13T02:12:12.611Z,27.40
2022-11-13T02:14:44.348Z,27.88
2022-11-13T02:17:17.810Z,28.02
2022-11-13T02:19:52.101Z,27.05
2022-11-13T02:22:34.979Z,25.60
2022-11-13T02:25:07.451Z,28.58
2022-11-13T02:27:44.062Z,27.83
2022-11-13T02:30:17.506Z,27.77
2022-11-13T02:32:51.106Z,27.75
2022-11-13T02:35:25.610Z,27.35
2022-11-13T02:37:55.874Z,27.30
2022-11-13T02:40:26.824Z,25.90
2022-11-13T02:42:55.220Z,27.73
2022-11-13T02:45:24.495Z,27.98
2022-11-13T02:47:52.995Z,28.65
2022-11-13T02:50:21.747Z,28.15
2022-11-13T02:52:50.172Z,26.92
2022-11-13T02:55:19.001Z,27.27
2022-11-13T02:57:48.923Z,27.15
2022-11-13T03:00:18.748Z,29.15
2022-11-13T03:02:47.189Z,28.58
2022-11-13T03:05:15.577Z,29.45
2022-11-13T03:07:44.440Z,28.65
2022-11-13T03:10:13.208Z,29.02
2022-11-13T03:12:42.233Z,29.98
2022-11-13T03:15:12.669Z,28.73
2022-11-13T03:17:42.570Z,29.30
2022-11-13T03:20:11.685Z,30.27
2022-11-13T03:22:40.252Z,27.33
2022-11-13T03:25:10.898Z,29.80
2022-11-13T03:27:39.934Z,28.23
2022-11-13T03:30:11.977Z,27.73
2022-11-13T03:32:40.296Z,27.90
2022-11-13T03:35:10.074Z,29.80
2022-11-13T03:37:38.857Z,26.75
2022-11-13T03:40:09.487Z,27.65
2022-11-13T03:42:37.843Z,26.08
2022-11-13T03:45:07.225Z,25.73
2022-11-13T03:47:37.410Z,24.73
2022-11-13T03:50:07.040Z,26.88
2022-11-13T03:52:35.795Z,26.08
2022-11-13T03:55:04.241Z,24.65
2022-11-13T03:57:32.867Z,25.40
2022-11-13T04:00:01.640Z,25.60
2022-11-13T04:02:30.335Z,24.80
2022-11-13T04:05:00.248Z,24.33
2022-11-13T04:07:28.712Z,24.67
2022-11-13T04:09:57.090Z,23.63
2022-11-13T04:12:27.295Z,23.05
2022-11-13T04:14:55.611Z,23.17
2022-11-13T04:17:24.075Z,23.05
2022-11-13T04:19:52.596Z,22.85
2022-11-13T04:22:22.587Z,23.40
2022-11-13T04:24:51.644Z,21.58
2022-11-13T04:27:20.081Z,22.63
2022-11-13T04:29:49.360Z,22.05
2022-11-13T04:32:17.936Z,21.58
2022-11-13T04:34:46.533Z,22.98
2022-11-13T04:37:15.023Z,22.30
2022-11-13T04:39:44.896Z,25.80
2022-11-13T04:42:31.509Z,27.00
2022-11-13T04:45:02.759Z,26.50
2022-11-13T04:47:32.264Z,24.80
2022-11-13T04:50:03.427Z,25.17
2022-11-13T04:52:31.987Z,24.30
2022-11-13T04:55:02.025Z,24.45
2022-11-13T04:57:30.718Z,24.17
2022-11-13T04:59:59.606Z,24.30
2022-11-13T05:02:28.293Z,25.42
2022-11-13T05:05:01.784Z,26.35
2022-11-13T05:07:33.395Z,25.33
2022-11-13T05:10:07.558Z,25.27
2022-11-13T05:12:35.986Z,26.70
2022-11-13T05:15:05.322Z,25.50
2022-11-13T05:17:33.708Z,25.35
2022-11-13T05:20:02.953Z,27.58
2022-11-13T05:22:31.685Z,27.13
2022-11-13T05:25:00.328Z,27.25
2022-11-13T05:27:32.653Z,26.23
2022-11-13T05:30:01.130Z,26.27
2022-11-13T05:32:29.969Z,25.77
2022-11-13T05:34:58.436Z,26.60
2022-11-13T05:37:26.771Z,26.33
2022-11-13T05:39:55.160Z,24.45
2022-11-13T05:42:23.649Z,26.33
2022-11-13T05:44:53.495Z,27.27
2022-11-13T05:47:22.250Z,25.77
2022-11-13T05:49:50.542Z,25.48
2022-11-13T05:52:18.991Z,25.45
2022-11-13T05:54:47.424Z,26.20
2022-11-13T05:57:15.900Z,27.20
2022-11-13T05:59:44.521Z,26.58
2022-11-13T06:02:14.335Z,27.35
2022-11-13T06:04:43.050Z,25.98
2022-11-13T06:07:11.560Z,27.30
2022-11-13T06:09:40.545Z,26.73
2022-11-13T06:12:09.428Z,25.92
2022-11-13T06:14:37.928Z,26.23
2022-11-13T06:17:06.272Z,26.10
2022-11-13T06:19:36.234Z,26.40
2022-11-13T06:22:04.767Z,26.10
2022-11-13T06:24:33.311Z,26.75
2022-11-13T06:27:02.132Z,26.17
2022-11-13T06:29:30.670Z,25.95
2022-11-13T06:31:59.029Z,24.60
2022-11-13T06:34:27.904Z,25.83
2022-11-13T06:36:57.756Z,27.20
2022-11-13T06:39:26.198Z,25.73
2022-11-13T06:41:54.730Z,25.90
2022-11-13T06:44:23.053Z,26.23
2022-11-13T06:46:51.479Z,24.90
2022-11-13T06:49:19.870Z,25.60
2022-11-13T06:51:48.379Z,25.92
2022-11-13T06:54:18.428Z,24.90
2022-11-13T06:56:47.717Z,25.30
2022-11-13T06:59:16.080Z,25.42
2022-11-13T07:01:44.593Z,26.50
2022-11-13T07:04:14.393Z,25.90
2022-11-13T07:06:42.905Z,24.60
2022-11-13T07:09:11.260Z,25.40
2022-11-13T07:11:41.362Z,27.30
2022-11-13T07:14:12.868Z,27.15
2022-11-13T07:17:07.494Z,26.60
2022-11-13T07:19:29.532Z,25.50
2022-11-13T07:21:57.857Z,25.88
2022-11-13T07:24:26.849Z,26.90
2022-11-13T07:26:56.735Z,27.48
2022-11-13T07:29:25.194Z,29.05
2022-11-13T07:31:53.516Z,27.77
2022-11-13T07:34:21.866Z,30.73
2022-11-13T07:36:50.361Z,31.60
2022-11-13T07:39:19.017Z,32.17
2022-11-13T07:41:49.174Z,32.55
2022-11-13T07:44:40.122Z,32.45
2022-11-13T07:47:07.912Z,33.05
2022-11-13T07:49:36.379Z,33.80
2022-11-13T07:52:07.680Z,35.13
2022-11-13T07:54:36.222Z,35.78
2022-11-13T07:57:04.950Z,36.65
2022-11-13T07:59:35.158Z,38.63
2022-11-13T08:02:04.652Z,41.72
2022-11-13T08:04:33.470Z,42.08
2022-11-13T08:07:02.054Z,43.30
2022-11-13T08:09:30.805Z,44.55
2022-11-13T08:12:00.135Z,45.88
2022-11-13T08:14:28.775Z,44.88
2022-11-13T08:16:58.753Z,44.00
2022-11-13T08:19:27.316Z,46.80
2022-11-13T08:21:55.881Z,45.75
2022-11-13T08:24:24.787Z,44.35
2022-11-13T08:26:53.250Z,41.67
2022-11-13T08:29:25.012Z,40.90
2022-11-13T08:31:53.879Z,38.47
2022-11-13T08:34:23.950Z,37.97
2022-11-13T08:36:52.895Z,34.80
2022-11-13T08:39:21.345Z,33.15
2022-11-13T08:41:50.410Z,29.83
2022-11-13T08:44:19.197Z,26.73
2022-11-13T08:46:50.304Z,24.42
2022-11-13T08:49:18.742Z,24.83
2022-11-13T08:51:48.734Z,22.05
2022-11-13T08:54:17.798Z,20.40
2022-11-13T08:56:56.577Z,18.63
2022-11-13T08:59:27.195Z,16.70
2022-11-13T09:01:59.657Z,15.30
2022-11-13T09:04:28.854Z,15.18
2022-11-13T09:06:58.723Z,15.15
2022-11-13T09:09:28.320Z,14.80
2022-11-13T09:11:57.261Z,13.18
2022-11-13T09:14:26.275Z,12.40
2022-11-13T09:16:54.855Z,13.13
2022-11-13T09:19:27.029Z,12.20
2022-11-13T09:22:00.340Z,13.05
2022-11-13T09:24:28.693Z,11.98
2022-11-13T09:26:58.157Z,11.00
2022-11-13T09:29:28.618Z,11.30
2022-11-13T09:31:57.731Z,10.85
2022-11-13T09:34:28.416Z,11.10
2022-11-13T09:36:56.998Z,11.45
2022-11-13T09:39:29.704Z,11.57
2022-11-13T09:42:09.500Z,10.30
2022-11-13T09:44:45.614Z,10.30
2022-11-13T09:47:22.737Z,10.13
2022-11-13T09:49:57.374Z,9.50
2022-11-13T09:52:35.825Z,10.80
2022-11-13T09:55:06.844Z,8.95
2022-11-13T09:57:45.987Z,10.00
2022-11-13T10:00:19.063Z,9.80
2022-11-13T10:03:00.526Z,9.85
2022-11-13T10:05:40.952Z,10.20
2022-11-13T10:08:18.025Z,9.20
2022-11-13T10:10:57.755Z,8.77
2022-11-13T10:13:30.178Z,9.77
2022-11-13T10:16:12.238Z,9.52
2022-11-13T10:18:42.036Z,9.27
2022-11-13T10:21:21.481Z,9.05
2022-11-13T10:24:02.027Z,9.05
2022-11-13T10:26:31.965Z,9.40
2022-11-13T10:29:07.724Z,9.15
2022-11-13T10:31:45.556Z,9.55
2022-11-13T10:34:16.106Z,9.30
2022-11-13T10:37:01.726Z,9.75
2022-11-13T10:42:00.022Z,8.73
2022-11-13T10:44:35.468Z,9.15
2022-11-13T10:47:26.455Z,8.70
2022-11-13T10:50:09.730Z,9.52
2022-11-13T10:52:48.202Z,8.98
2022-11-13T10:55:28.595Z,8.85
2022-11-13T10:58:01.454Z,9.30
2022-11-13T11:00:34.843Z,9.00
2022-11-13T11:03:05.444Z,8.95
2022-11-13T11:05:34.216Z,8.77
2022-11-13T11:08:03.008Z,9.27
2022-11-13T11:10:35.323Z,8.73
2022-11-13T11:13:13.571Z,8.93
2022-11-13T11:15:49.314Z,9.40
2022-11-13T11:18:27.697Z,10.10
2022-11-13T11:21:00.108Z,9.70
2022-11-13T11:23:42.342Z,9.40
2022-11-13T11:26:19.376Z,8.25
2022-11-13T11:29:01.625Z,9.77
2022-11-13T11:31:42.134Z,9.45
2022-11-13T11:34:19.961Z,9.38
2022-11-13T11:37:02.330Z,8.18
2022-11-13T11:39:40.484Z,9.07
2022-11-13T11:42:21.960Z,7.90
2022-11-13T11:45:12.642Z,8.02
2022-11-13T11:47:41.143Z,8.80
2022-11-13T11:50:16.559Z,8.52
2022-11-13T11:55:54.345Z,7.65
2022-11-13T11:58:53.512Z,7.97
2022-11-13T12:02:00.916Z,7.45
2022-11-13T12:04:48.447Z,7.85
2022-11-13T12:07:34.206Z,7.55
2022-11-13T12:12:56.308Z,8.13
2022-11-13T12:15:37.125Z,8.40
2022-11-13T12:18:18.554Z,7.45
2022-11-13T12:20:58.081Z,8.30
2022-11-13T12:23:42.177Z,8.30
2022-11-13T12:26:20.766Z,8.05
2022-11-13T12:29:01.566Z,8.45
2022-11-13T12:31:52.069Z,8.85
2022-11-13T12:34:29.866Z,8.60
2022-11-13T12:36:59.601Z,8.63
2022-11-13T12:39:44.002Z,8.75
2022-11-13T12:42:23.108Z,8.77
2022-11-13T12:45:02.407Z,8.73
2022-11-13T12:47:34.185Z,8.55
2022-11-13T12:50:07.773Z,7.95
2022-11-13T12:52:36.433Z,7.28
2022-11-13T12:55:09.298Z,7.07
2022-11-13T12:57:49.219Z,6.15
2022-11-13T13:00:30.470Z,6.82
2022-11-13T13:03:17.801Z,6.85
2022-11-13T13:06:20.988Z,6.93
2022-11-13T13:09:08.117Z,7.00
2022-11-13T13:11:45.478Z,6.97
2022-11-13T13:14:51.356Z,6.75
2022-11-13T13:17:22.804Z,7.05
2022-11-13T13:20:00.619Z,6.65
2022-11-13T13:22:33.946Z,6.63
2022-11-13T13:25:08.421Z,6.65
2022-11-13T13:27:43.566Z,7.45
2022-11-13T13:30:21.669Z,6.30
2022-11-13T13:33:04.190Z,7.57
2022-11-13T13:35:40.532Z,6.05
2022-11-13T13:38:20.175Z,6.05
2022-11-13T13:41:15.892Z,5.80
2022-11-13T13:44:06.045Z,6.60
2022-11-13T13:46:36.407Z,6.85
2022-11-13T13:49:09.530Z,6.13
2022-11-13T13:51:43.137Z,6.43
2022-11-13T13:54:25.074Z,6.43
2022-11-13T13:56:55.284Z,6.20
2022-11-13T13:59:29.846Z,5.90
2022-11-13T14:02:00.454Z,4.73
2022-11-13T14:04:30.700Z,4.78
2022-11-13T14:07:01.104Z,5.50
2022-11-13T14:09:32.086Z,4.65
2022-11-13T14:12:09.360Z,5.03
2022-11-13T14:14:40.971Z,4.35
2022-11-13T14:17:12.674Z,4.68
2022-11-13T14:19:41.257Z,4.35
2022-11-13T14:22:13.403Z,4.45
2022-11-13T14:24:49.916Z,4.30
2022-11-13T14:27:24.312Z,4.43
2022-11-13T14:29:56.676Z,4.30
2022-11-13T14:32:29.526Z,4.43
2022-11-13T14:35:02.259Z,4.13
2022-11-13T14:37:37.712Z,3.90
2022-11-13T14:40:21.537Z,3.80
2022-11-13T14:42:54.438Z,3.95
2022-11-13T14:45:25.804Z,3.63
2022-11-13T14:48:00.379Z,3.70
2022-11-13T14:50:31.855Z,3.57
2022-11-13T14:53:03.765Z,3.60
2022-11-13T14:55:37.638Z,3.40
2022-11-13T14:58:06.953Z,3.42
2022-11-13T15:00:38.256Z,3.40
2022-11-13T15:03:07.621Z,3.20
2022-11-13T15:05:37.935Z,3.75
2022-11-13T15:08:07.224Z,3.40
2022-11-13T15:10:38.641Z,3.45
2022-11-13T15:13:13.253Z,2.70
2022-11-13T15:15:42.261Z,3.07
2022-11-13T15:18:18.438Z,3.15
2022-11-13T15:20:47.411Z,3.60
2022-11-13T15:23:17.851Z,3.08
2022-11-13T15:25:48.065Z,4.55
2022-11-13T15:28:16.406Z,4.13
2022-11-13T15:30:44.864Z,5.00
2022-11-13T15:33:16.816Z,5.00
2022-11-13T15:35:45.560Z,4.47
2022-11-13T15:38:18.371Z,4.95
2022-11-13T15:40:48.793Z,4.93
2022-11-13T15:43:21.363Z,5.30
2022-11-13T15:45:49.771Z,5.60
2022-11-13T15:48:18.568Z,5.95
2022-11-13T15:50:47.241Z,5.95
2022-11-13T15:53:15.764Z,6.50
2022-11-13T15:55:44.632Z,7.10
2022-11-13T15:58:17.172Z,6.60
2022-11-13T16:00:46.061Z,7.30
2022-11-13T16:03:14.461Z,7.03
2022-11-13T16:05:43.042Z,7.35
2022-11-13T16:08:14.957Z,7.63
2022-11-13T16:10:43.634Z,9.73
2022-11-13T16:13:13.101Z,9.38
2022-11-13T16:15:43.563Z,8.88
2022-11-13T16:18:25.211Z,9.95
2022-11-13T16:20:54.185Z,10.55
2022-11-13T16:23:23.146Z,11.15
2022-11-13T16:25:52.763Z,11.35
2022-11-13T16:28:21.955Z,12.05
2022-11-13T16:30:54.357Z,12.60
2022-11-13T16:33:23.267Z,12.93
2022-11-13T16:35:52.444Z,13.05
2022-11-13T16:38:20.807Z,13.50
2022-11-13T16:40:49.174Z,12.57
2022-11-13T16:43:17.866Z,12.70
2022-11-13T16:45:46.179Z,11.93
2022-11-13T16:48:17.422Z,12.38
2022-11-13T16:50:45.774Z,11.77
2022-11-13T16:53:14.216Z,12.07
2022-11-13T16:55:42.591Z,12.63
2022-11-13T16:58:15.240Z,12.70
2022-11-13T17:00:43.611Z,13.70
2022-11-13T17:03:12.126Z,14.15
2022-11-13T17:05:41.994Z,14.35
2022-11-13T17:08:14.207Z,14.57
2022-11-13T17:10:42.640Z,17.25
2022-11-13T17:13:11.866Z,172.50
2022-11-13T17:15:40.320Z,80.28
2022-11-13T17:18:10.467Z,40.67
2022-11-13T17:20:39.389Z,39.90
2022-11-13T17:23:16.882Z,23.75
2022-11-13T17:25:45.393Z,21.02
2022-11-13T17:28:13.985Z,21.00
2022-11-13T17:30:42.411Z,21.17
2022-11-13T17:33:10.846Z,19.92
2022-11-13T17:35:39.466Z,17.50
2022-11-13T17:38:09.413Z,16.63
2022-11-13T17:40:37.822Z,15.23
2022-11-13T17:43:09.312Z,15.55
2022-11-13T17:45:38.812Z,15.57
2022-11-13T17:48:07.586Z,18.23
2022-11-13T17:50:36.049Z,19.83
2022-11-13T17:53:04.485Z,19.88
2022-11-13T17:55:34.290Z,20.90
2022-11-13T17:58:04.070Z,23.20
2022-11-13T18:00:32.695Z,29.95
2022-11-13T18:03:01.127Z,21.58
2022-11-13T18:05:29.733Z,19.27
2022-11-13T18:07:58.235Z,19.25
2022-11-13T18:10:29.316Z,15.82
2022-11-13T18:12:59.351Z,15.40
2022-11-13T18:15:28.312Z,15.60
2022-11-13T18:17:56.713Z,14.80
2022-11-13T18:20:29.016Z,15.85
2022-11-13T18:22:58.026Z,14.73
2022-11-13T18:25:29.606Z,15.60
2022-11-13T18:27:59.363Z,16.23
2022-11-13T18:30:27.750Z,14.93
2022-11-13T18:32:56.098Z,15.15
2022-11-13T18:35:24.511Z,14.35
2022-11-13T18:37:53.189Z,15.88
2022-11-13T18:40:21.563Z,14.77
2022-11-13T18:42:51.975Z,13.85
2022-11-13T18:45:22.092Z,14.60
2022-11-13T18:47:50.732Z,13.68
2022-11-13T18:50:19.164Z,19.60
2022-11-13T18:52:47.575Z,33.22
2022-11-13T18:55:16.048Z,25.63
2022-11-13T18:57:44.473Z,17.85
2022-11-13T19:00:14.638Z,17.75
2022-11-13T19:02:44.377Z,15.63
2022-11-13T19:05:12.816Z,14.18
2022-11-13T19:07:43.914Z,14.15
2022-11-13T19:10:12.401Z,14.63
2022-11-13T19:12:41.054Z,15.85
2022-11-13T19:15:11.111Z,13.77
2022-11-13T19:17:39.621Z,14.35
2022-11-13T19:20:11.764Z,14.07
2022-11-13T19:22:40.756Z,14.13
2022-11-13T19:25:10.082Z,14.38
2022-11-13T19:27:39.142Z,14.77
2022-11-13T19:30:09.184Z,13.43
2022-11-13T19:32:38.083Z,13.57
2022-11-13T19:35:08.107Z,15.25
2022-11-13T19:37:40.419Z,14.65
2022-11-13T19:40:13.049Z,13.80
2022-11-13T19:42:43.485Z,14.35
2022-11-13T19:45:14.020Z,14.57
2022-11-13T19:47:43.090Z,14.63
2022-11-13T19:50:12.693Z,14.02
2022-11-13T19:52:42.715Z,13.45
2022-11-13T19:55:11.385Z,14.68
2022-11-13T19:57:45.093Z,14.75
2022-11-13T20:00:15.778Z,14.30
2022-11-13T20:02:44.460Z,13.57
2022-11-13T20:05:13.384Z,14.50
2022-11-13T20:07:45.811Z,12.68
2022-11-13T20:10:16.274Z,17.63
2022-11-13T20:12:46.079Z,21.90
2022-11-13T20:15:14.965Z,17.05
2022-11-13T20:17:43.829Z,16.27
2022-11-13T20:20:13.672Z,16.63
2022-11-13T20:22:44.353Z,19.70
2022-11-13T20:25:12.978Z,17.52
2022-11-13T20:27:47.134Z,20.40
2022-11-13T20:30:16.457Z,17.40
2022-11-13T20:32:45.098Z,14.98
2022-11-13T20:35:16.241Z,15.73
2022-11-13T20:37:46.552Z,15.88
2022-11-13T20:40:15.762Z,17.08
2022-11-13T20:42:44.602Z,14.88
2022-11-13T20:45:13.267Z,15.40
2022-11-13T20:47:42.095Z,14.00
2022-11-13T20:50:11.935Z,14.90
2022-11-13T20:52:41.014Z,13.57
2022-11-13T20:55:11.405Z,13.65
2022-11-13T20:57:41.223Z,12.93
2022-11-13T21:00:12.784Z,13.55
2022-11-13T21:02:41.452Z,13.95
2022-11-13T21:05:10.822Z,14.15
2022-11-13T21:07:39.836Z,14.05
2022-11-13T21:10:10.933Z,14.13
2022-11-13T21:12:39.948Z,14.30
2022-11-13T21:15:12.996Z,15.07
2022-11-13T21:17:41.868Z,15.35
2022-11-13T21:20:14.328Z,14.35
2022-11-13T21:22:42.977Z,14.63
2022-11-13T21:25:13.096Z,15.02
2022-11-13T21:27:42.639Z,14.75
2022-11-13T21:30:12.939Z,14.95
2022-11-13T21:32:41.806Z,15.13
2022-11-13T21:35:10.800Z,17.13
2022-11-13T21:37:39.393Z,16.75
2022-11-13T21:40:10.851Z,17.00
2022-11-13T21:42:40.936Z,16.30
2022-11-13T21:45:10.992Z,15.35
2022-11-13T21:47:39.962Z,17.05
2022-11-13T21:50:09.964Z,15.55
2022-11-13T21:52:38.408Z,15.48
2022-11-13T21:55:08.678Z,15.75
2022-11-13T21:57:37.374Z,16.65
2022-11-13T22:00:11.099Z,15.80
2022-11-13T22:02:39.495Z,16.88
2022-11-13T22:05:09.175Z,17.20
2022-11-13T22:07:37.965Z,16.67
2022-11-13T22:10:08.626Z,20.23
2022-11-13T22:12:37.281Z,18.70
2022-11-13T22:15:14.540Z,18.35
2022-11-13T22:17:42.946Z,18.23
2022-11-13T22:20:13.113Z,18.25
2022-11-13T22:22:41.972Z,17.60
2022-11-13T22:25:10.790Z,17.73
2022-11-13T22:27:39.310Z,18.45
2022-11-13T22:30:11.265Z,19.10
2022-11-13T22:32:39.755Z,17.48
2022-11-13T22:35:09.594Z,19.30
2022-11-13T22:37:37.959Z,18.15
2022-11-13T22:40:07.680Z,18.75
2022-11-13T22:42:37.210Z,18.83
2022-11-13T22:45:22.832Z,19.48
2022-11-13T22:47:52.378Z,19.80
2022-11-13T22:50:20.790Z,18.77
2022-11-13T22:52:49.285Z,20.50
2022-11-13T22:55:18.012Z,19.65
2022-11-13T22:57:46.585Z,19.98
2022-11-13T23:00:18.139Z,20.00
2022-11-13T23:02:47.525Z,20.98
2022-11-13T23:05:16.542Z,20.23
2022-11-13T23:07:45.136Z,21.63
2022-11-13T23:10:14.360Z,22.95
2022-11-13T23:12:43.005Z,22.02
2022-11-13T23:15:12.357Z,22.15
2022-11-13T23:17:42.320Z,23.05
2022-11-13T23:20:12.458Z,23.35
2022-11-13T23:22:41.126Z,24.17
2022-11-13T23:25:10.848Z,22.98
2022-11-13T23:27:39.447Z,25.02
2022-11-13T23:30:10.394Z,23.73
2022-11-13T23:32:38.802Z,24.48
2022-11-13T23:35:10.034Z,24.88
2022-11-13T23:37:38.795Z,26.23
2022-11-13T23:40:09.211Z,25.48
2022-11-13T23:42:54.264Z,26.10
2022-11-13T23:45:24.066Z,26.50
2022-11-13T23:47:53.184Z,25.90
2022-11-13T23:50:23.214Z,26.27
2022-11-13T23:52:51.923Z,26.85
2022-11-13T23:55:21.270Z,27.85
2022-11-13T23:57:56.549Z,29.15
